Terminal Aerodrome Forecast
Issued by NWS

Home | Current Version | Previous Version | Text Only | Print | Product List | Glossary On
Versions: 1 2 3 4 5 6 7 8 9 10 11 12 13 14 15 16
000
FTAK31 PAJN 051140
TAFAPG
TAF
PAPG 051140Z 0512/0612 00000KT P6SM SCT035 OVC150
     FM051700 08004KT P6SM BKN060 OVC140
     FM052300 06006KT P6SM BKN070 OVC100
     FM060500 11004KT P6SM SCT040 OVC060
      AMD NOT SKED 0512/0516=

USA.gov is the U.S. government's official web portal to all federal, state and local government web resources and services.